sensor_id;sensor_type;location;lat;lon;timestamp;temperature;humidity
21104;DHT22;10710;53.398;-1.514;2023-12-28T00:01:17;9.90;99.90
21104;DHT22;10710;53.398;-1.514;2023-12-28T00:04:02;9.80;99.90
21104;DHT22;10710;53.398;-1.514;2023-12-28T00:06:46;9.80;99.90
21104;DHT22;10710;53.398;-1.514;2023-12-28T00:09:31;9.80;99.90
21104;DHT22;10710;53.398;-1.514;2023-12-28T00:12:15;9.90;99.90
21104;DHT22;10710;53.398;-1.514;2023-12-28T00:15:00;10.00;99.90
21104;DHT22;10710;53.398;-1.514;2023-12-28T00:17:45;10.00;99.90
21104;DHT22;10710;53.398;-1.514;2023-12-28T00:20:29;10.00;99.90
21104;DHT22;10710;53.398;-1.514;2023-12-28T00:23:14;9.90;99.90
21104;DHT22;10710;53.398;-1.514;2023-12-28T00:25:58;10.10;99.90
21104;DHT22;10710;53.398;-1.514;2023-12-28T00:28:43;9.90;99.90
21104;DHT22;10710;53.398;-1.514;2023-12-28T00:31:27;9.90;99.90
21104;DHT22;10710;53.398;-1.514;2023-12-28T00:34:12;9.90;99.90
21104;DHT22;10710;53.398;-1.514;2023-12-28T00:36:56;9.90;99.90
21104;DHT22;10710;53.398;-1.514;2023-12-28T00:39:40;9.80;99.90
21104;DHT22;10710;53.398;-1.514;2023-12-28T00:42:25;9.70;99.90
21104;DHT22;10710;53.398;-1.514;2023-12-28T00:45:09;9.60;99.90
21104;DHT22;10710;53.398;-1.514;2023-12-28T00:47:54;9.80;99.90
21104;DHT22;10710;53.398;-1.514;2023-12-28T00:50:40;9.90;99.90
21104;DHT22;10710;53.398;-1.514;2023-12-28T00:53:26;9.90;99.90
21104;DHT22;10710;53.398;-1.514;2023-12-28T00:56:11;10.00;99.90
21104;DHT22;10710;53.398;-1.514;2023-12-28T00:58:55;10.00;99.90
21104;DHT22;10710;53.398;-1.514;2023-12-28T01:01:40;10.00;99.90
21104;DHT22;10710;53.398;-1.514;2023-12-28T01:04:30;10.00;99.90
21104;DHT22;10710;53.398;-1.514;2023-12-28T01:07:15;10.00;99.90
21104;DHT22;10710;53.398;-1.514;2023-12-28T01:10:03;9.90;99.90
21104;DHT22;10710;53.398;-1.514;2023-12-28T01:13:03;10.10;99.90
21104;DHT22;10710;53.398;-1.514;2023-12-28T01:15:55;9.90;99.90
21104;DHT22;10710;53.398;-1.514;2023-12-28T01:18:46;9.90;99.90
21104;DHT22;10710;53.398;-1.514;2023-12-28T01:21:33;10.40;99.90
21104;DHT22;10710;53.398;-1.514;2023-12-28T01:24:40;9.80;99.90
21104;DHT22;10710;53.398;-1.514;2023-12-28T01:27:31;9.10;99.90
21104;DHT22;10710;53.398;-1.514;2023-12-28T01:30:23;9.80;99.90
21104;DHT22;10710;53.398;-1.514;2023-12-28T01:33:27;9.50;99.90
21104;DHT22;10710;53.398;-1.514;2023-12-28T01:36:17;9.80;99.90
21104;DHT22;10710;53.398;-1.514;2023-12-28T01:39:15;9.70;99.90
21104;DHT22;10710;53.398;-1.514;2023-12-28T01:46:01;10.00;99.90
21104;DHT22;10710;53.398;-1.514;2023-12-28T01:52:39;8.80;99.90
21104;DHT22;10710;53.398;-1.514;2023-12-28T01:55:48;9.80;99.90
21104;DHT22;10710;53.398;-1.514;2023-12-28T01:59:04;8.50;99.90
21104;DHT22;10710;53.398;-1.514;2023-12-28T02:02:18;9.80;99.90
21104;DHT22;10710;53.398;-1.514;2023-12-28T02:05:38;10.00;99.90
21104;DHT22;10710;53.398;-1.514;2023-12-28T02:08:41;9.30;99.90
21104;DHT22;10710;53.398;-1.514;2023-12-28T02:11:58;9.60;99.90
21104;DHT22;10710;53.398;-1.514;2023-12-28T02:25:34;8.00;99.90
21104;DHT22;10710;53.398;-1.514;2023-12-28T02:28:38;9.00;99.90
21104;DHT22;10710;53.398;-1.514;2023-12-28T02:31:52;9.10;99.90
21104;DHT22;10710;53.398;-1.514;2023-12-28T02:35:23;9.00;99.90
21104;DHT22;10710;53.398;-1.514;2023-12-28T02:38:15;9.10;99.90
21104;DHT22;10710;53.398;-1.514;2023-12-28T02:41:10;9.80;99.90
21104;DHT22;10710;53.398;-1.514;2023-12-28T02:51:04;9.60;99.90
21104;DHT22;10710;53.398;-1.514;2023-12-28T02:53:52;9.60;99.90
21104;DHT22;10710;53.398;-1.514;2023-12-28T02:56:40;9.70;99.90
21104;DHT22;10710;53.398;-1.514;2023-12-28T02:59:52;9.90;99.90
21104;DHT22;10710;53.398;-1.514;2023-12-28T03:02:40;9.30;99.90
21104;DHT22;10710;53.398;-1.514;2023-12-28T03:05:25;9.90;99.90
21104;DHT22;10710;53.398;-1.514;2023-12-28T03:08:12;9.80;99.90
21104;DHT22;10710;53.398;-1.514;2023-12-28T03:10:57;10.00;99.90
21104;DHT22;10710;53.398;-1.514;2023-12-28T03:13:44;9.90;99.90
21104;DHT22;10710;53.398;-1.514;2023-12-28T03:16:31;10.00;99.90
21104;DHT22;10710;53.398;-1.514;2023-12-28T03:19:21;10.10;99.90
21104;DHT22;10710;53.398;-1.514;2023-12-28T03:22:06;10.20;99.90
21104;DHT22;10710;53.398;-1.514;2023-12-28T03:24:50;10.20;99.90
21104;DHT22;10710;53.398;-1.514;2023-12-28T03:27:35;10.20;99.90
21104;DHT22;10710;53.398;-1.514;2023-12-28T03:30:19;10.20;99.90
21104;DHT22;10710;53.398;-1.514;2023-12-28T03:33:04;10.20;99.90
21104;DHT22;10710;53.398;-1.514;2023-12-28T03:35:48;10.20;99.90
21104;DHT22;10710;53.398;-1.514;2023-12-28T03:38:33;10.30;99.90
21104;DHT22;10710;53.398;-1.514;2023-12-28T03:41:18;10.20;99.90
21104;DHT22;10710;53.398;-1.514;2023-12-28T03:44:03;10.30;99.90
21104;DHT22;10710;53.398;-1.514;2023-12-28T03:46:49;10.30;99.90
21104;DHT22;10710;53.398;-1.514;2023-12-28T03:49:33;10.30;99.90
21104;DHT22;10710;53.398;-1.514;2023-12-28T03:52:18;10.30;99.90
21104;DHT22;10710;53.398;-1.514;2023-12-28T03:55:02;10.30;99.90
21104;DHT22;10710;53.398;-1.514;2023-12-28T03:57:47;10.10;99.90
21104;DHT22;10710;53.398;-1.514;2023-12-28T04:00:32;10.00;99.90
21104;DHT22;10710;53.398;-1.514;2023-12-28T04:03:16;9.80;99.90
21104;DHT22;10710;53.398;-1.514;2023-12-28T04:06:01;9.70;99.90
21104;DHT22;10710;53.398;-1.514;2023-12-28T04:08:45;9.40;99.90
21104;DHT22;10710;53.398;-1.514;2023-12-28T04:11:32;9.60;99.90
21104;DHT22;10710;53.398;-1.514;2023-12-28T04:14:17;9.50;99.90
21104;DHT22;10710;53.398;-1.514;2023-12-28T04:17:08;9.50;99.90
21104;DHT22;10710;53.398;-1.514;2023-12-28T04:19:58;9.50;99.90
21104;DHT22;10710;53.398;-1.514;2023-12-28T04:22:46;10.10;99.90
21104;DHT22;10710;53.398;-1.514;2023-12-28T04:25:33;9.60;99.90
21104;DHT22;10710;53.398;-1.514;2023-12-28T04:28:17;9.60;99.90
21104;DHT22;10710;53.398;-1.514;2023-12-28T04:31:06;9.70;99.90
21104;DHT22;10710;53.398;-1.514;2023-12-28T04:33:50;9.70;99.90
21104;DHT22;10710;53.398;-1.514;2023-12-28T04:36:42;9.70;99.90
21104;DHT22;10710;53.398;-1.514;2023-12-28T04:39:28;9.80;99.90
21104;DHT22;10710;53.398;-1.514;2023-12-28T04:42:12;9.80;99.90
21104;DHT22;10710;53.398;-1.514;2023-12-28T04:44:57;9.90;99.90
21104;DHT22;10710;53.398;-1.514;2023-12-28T04:47:42;10.00;99.90
21104;DHT22;10710;53.398;-1.514;2023-12-28T04:50:26;9.90;99.90
21104;DHT22;10710;53.398;-1.514;2023-12-28T04:53:11;9.80;99.90
21104;DHT22;10710;53.398;-1.514;2023-12-28T04:55:56;9.80;99.90
21104;DHT22;10710;53.398;-1.514;2023-12-28T04:58:40;9.80;99.90
21104;DHT22;10710;53.398;-1.514;2023-12-28T05:01:25;9.70;99.90
21104;DHT22;10710;53.398;-1.514;2023-12-28T05:04:10;9.70;99.90
21104;DHT22;10710;53.398;-1.514;2023-12-28T05:06:55;9.80;99.90
21104;DHT22;10710;53.398;-1.514;2023-12-28T05:09:39;9.80;99.90
21104;DHT22;10710;53.398;-1.514;2023-12-28T05:12:23;9.80;99.90
21104;DHT22;10710;53.398;-1.514;2023-12-28T05:15:07;9.80;99.90
21104;DHT22;10710;53.398;-1.514;2023-12-28T05:17:51;9.70;99.90
21104;DHT22;10710;53.398;-1.514;2023-12-28T05:20:36;9.70;99.90
21104;DHT22;10710;53.398;-1.514;2023-12-28T05:23:20;9.70;99.90
21104;DHT22;10710;53.398;-1.514;2023-12-28T05:26:05;9.80;99.90
21104;DHT22;10710;53.398;-1.514;2023-12-28T05:28:50;9.80;99.90
21104;DHT22;10710;53.398;-1.514;2023-12-28T05:31:34;9.80;99.90
21104;DHT22;10710;53.398;-1.514;2023-12-28T05:34:19;9.80;99.90
21104;DHT22;10710;53.398;-1.514;2023-12-28T05:37:03;9.80;99.90
21104;DHT22;10710;53.398;-1.514;2023-12-28T05:39:48;9.70;99.90
21104;DHT22;10710;53.398;-1.514;2023-12-28T05:42:33;9.60;99.90
21104;DHT22;10710;53.398;-1.514;2023-12-28T05:45:17;9.70;99.90
21104;DHT22;10710;53.398;-1.514;2023-12-28T05:48:01;9.70;99.90
21104;DHT22;10710;53.398;-1.514;2023-12-28T05:50:46;9.60;99.90
21104;DHT22;10710;53.398;-1.514;2023-12-28T05:53:30;9.60;99.90
21104;DHT22;10710;53.398;-1.514;2023-12-28T05:56:15;9.60;99.90
21104;DHT22;10710;53.398;-1.514;2023-12-28T05:58:59;9.60;99.90
21104;DHT22;10710;53.398;-1.514;2023-12-28T06:01:44;9.60;99.90
21104;DHT22;10710;53.398;-1.514;2023-12-28T06:04:29;9.50;99.90
21104;DHT22;10710;53.398;-1.514;2023-12-28T06:07:13;9.50;99.90
21104;DHT22;10710;53.398;-1.514;2023-12-28T06:09:58;9.50;99.90
21104;DHT22;10710;53.398;-1.514;2023-12-28T06:12:43;9.60;99.90
21104;DHT22;10710;53.398;-1.514;2023-12-28T06:15:28;9.60;99.90
21104;DHT22;10710;53.398;-1.514;2023-12-28T06:18:12;9.60;99.90
21104;DHT22;10710;53.398;-1.514;2023-12-28T06:20:56;9.60;99.90
21104;DHT22;10710;53.398;-1.514;2023-12-28T06:23:41;9.60;99.90
21104;DHT22;10710;53.398;-1.514;2023-12-28T06:26:25;9.70;99.90
21104;DHT22;10710;53.398;-1.514;2023-12-28T06:29:10;9.70;99.90
21104;DHT22;10710;53.398;-1.514;2023-12-28T06:31:54;9.90;99.90
21104;DHT22;10710;53.398;-1.514;2023-12-28T06:34:39;9.70;99.90
21104;DHT22;10710;53.398;-1.514;2023-12-28T06:37:23;9.70;99.90
21104;DHT22;10710;53.398;-1.514;2023-12-28T06:40:08;9.50;99.90
21104;DHT22;10710;53.398;-1.514;2023-12-28T06:42:53;9.70;99.90
21104;DHT22;10710;53.398;-1.514;2023-12-28T06:45:37;9.70;99.90
21104;DHT22;10710;53.398;-1.514;2023-12-28T06:48:22;9.70;99.90
21104;DHT22;10710;53.398;-1.514;2023-12-28T06:51:09;9.70;99.90
21104;DHT22;10710;53.398;-1.514;2023-12-28T06:53:53;9.70;99.90
21104;DHT22;10710;53.398;-1.514;2023-12-28T06:56:37;9.80;99.90
21104;DHT22;10710;53.398;-1.514;2023-12-28T06:59:22;9.80;99.90
21104;DHT22;10710;53.398;-1.514;2023-12-28T07:02:06;9.80;99.90
21104;DHT22;10710;53.398;-1.514;2023-12-28T07:04:50;9.80;99.90
21104;DHT22;10710;53.398;-1.514;2023-12-28T07:07:35;9.70;99.90
21104;DHT22;10710;53.398;-1.514;2023-12-28T07:10:21;9.70;99.90
21104;DHT22;10710;53.398;-1.514;2023-12-28T07:13:05;9.70;99.90
21104;DHT22;10710;53.398;-1.514;2023-12-28T07:15:50;9.70;99.90
21104;DHT22;10710;53.398;-1.514;2023-12-28T07:18:35;9.90;99.90
21104;DHT22;10710;53.398;-1.514;2023-12-28T07:21:19;9.90;99.90
21104;DHT22;10710;53.398;-1.514;2023-12-28T07:24:04;9.90;99.90
21104;DHT22;10710;53.398;-1.514;2023-12-28T07:26:49;9.90;99.90
21104;DHT22;10710;53.398;-1.514;2023-12-28T07:29:34;10.00;99.90
21104;DHT22;10710;53.398;-1.514;2023-12-28T07:32:19;10.00;99.90
21104;DHT22;10710;53.398;-1.514;2023-12-28T07:35:04;10.00;99.90
21104;DHT22;10710;53.398;-1.514;2023-12-28T07:37:48;10.00;99.90
21104;DHT22;10710;53.398;-1.514;2023-12-28T07:40:34;10.00;99.90
21104;DHT22;10710;53.398;-1.514;2023-12-28T07:43:18;9.80;99.90
21104;DHT22;10710;53.398;-1.514;2023-12-28T07:46:03;9.70;99.90
21104;DHT22;10710;53.398;-1.514;2023-12-28T07:48:47;9.60;99.90
21104;DHT22;10710;53.398;-1.514;2023-12-28T07:51:32;9.40;99.90
21104;DHT22;10710;53.398;-1.514;2023-12-28T07:54:16;9.30;99.90
21104;DHT22;10710;53.398;-1.514;2023-12-28T07:57:00;9.30;99.90
21104;DHT22;10710;53.398;-1.514;2023-12-28T07:59:45;9.30;99.90
21104;DHT22;10710;53.398;-1.514;2023-12-28T08:02:29;9.20;99.90
21104;DHT22;10710;53.398;-1.514;2023-12-28T08:05:13;9.20;99.90
21104;DHT22;10710;53.398;-1.514;2023-12-28T08:07:58;9.00;99.90
21104;DHT22;10710;53.398;-1.514;2023-12-28T08:10:42;8.90;99.90
21104;DHT22;10710;53.398;-1.514;2023-12-28T08:13:27;8.70;99.90
21104;DHT22;10710;53.398;-1.514;2023-12-28T08:16:11;8.70;99.90
21104;DHT22;10710;53.398;-1.514;2023-12-28T08:18:56;8.70;99.90
21104;DHT22;10710;53.398;-1.514;2023-12-28T08:21:41;8.70;99.90
21104;DHT22;10710;53.398;-1.514;2023-12-28T08:24:25;8.70;99.90
21104;DHT22;10710;53.398;-1.514;2023-12-28T08:27:09;8.80;99.90
21104;DHT22;10710;53.398;-1.514;2023-12-28T08:29:54;8.80;99.90
21104;DHT22;10710;53.398;-1.514;2023-12-28T08:32:38;8.70;99.90
21104;DHT22;10710;53.398;-1.514;2023-12-28T08:35:23;8.60;99.90
21104;DHT22;10710;53.398;-1.514;2023-12-28T08:38:08;8.60;99.90
21104;DHT22;10710;53.398;-1.514;2023-12-28T08:40:53;8.60;99.90
21104;DHT22;10710;53.398;-1.514;2023-12-28T08:43:37;8.60;99.90
21104;DHT22;10710;53.398;-1.514;2023-12-28T08:46:22;8.60;99.90
21104;DHT22;10710;53.398;-1.514;2023-12-28T08:49:09;8.70;99.90
21104;DHT22;10710;53.398;-1.514;2023-12-28T08:51:53;8.70;99.90
21104;DHT22;10710;53.398;-1.514;2023-12-28T08:54:37;8.70;99.90
21104;DHT22;10710;53.398;-1.514;2023-12-28T08:57:22;8.70;99.90
21104;DHT22;10710;53.398;-1.514;2023-12-28T09:00:07;8.70;99.90
21104;DHT22;10710;53.398;-1.514;2023-12-28T09:02:52;8.70;99.90
21104;DHT22;10710;53.398;-1.514;2023-12-28T09:05:36;8.80;99.90
21104;DHT22;10710;53.398;-1.514;2023-12-28T09:08:20;8.90;99.90
21104;DHT22;10710;53.398;-1.514;2023-12-28T09:11:04;8.80;99.90
21104;DHT22;10710;53.398;-1.514;2023-12-28T09:13:49;8.90;99.90
21104;DHT22;10710;53.398;-1.514;2023-12-28T09:16:34;9.00;99.90
21104;DHT22;10710;53.398;-1.514;2023-12-28T09:19:19;9.10;99.90
21104;DHT22;10710;53.398;-1.514;2023-12-28T09:22:04;9.20;99.90
21104;DHT22;10710;53.398;-1.514;2023-12-28T09:24:49;9.10;99.90
21104;DHT22;10710;53.398;-1.514;2023-12-28T09:27:33;9.20;99.90
21104;DHT22;10710;53.398;-1.514;2023-12-28T09:30:18;9.20;99.90
21104;DHT22;10710;53.398;-1.514;2023-12-28T09:33:02;9.20;99.90
21104;DHT22;10710;53.398;-1.514;2023-12-28T09:35:48;9.30;99.90
21104;DHT22;10710;53.398;-1.514;2023-12-28T09:38:32;9.30;99.90
21104;DHT22;10710;53.398;-1.514;2023-12-28T09:41:18;9.30;99.90
21104;DHT22;10710;53.398;-1.514;2023-12-28T09:44:17;9.40;99.90
21104;DHT22;10710;53.398;-1.514;2023-12-28T09:47:02;9.30;99.90
21104;DHT22;10710;53.398;-1.514;2023-12-28T09:49:49;9.40;99.90
21104;DHT22;10710;53.398;-1.514;2023-12-28T09:52:33;9.50;99.90
21104;DHT22;10710;53.398;-1.514;2023-12-28T09:55:18;9.60;99.90
21104;DHT22;10710;53.398;-1.514;2023-12-28T09:58:06;9.60;99.90
21104;DHT22;10710;53.398;-1.514;2023-12-28T10:01:02;9.80;99.90
21104;DHT22;10710;53.398;-1.514;2023-12-28T10:03:56;10.00;99.90
21104;DHT22;10710;53.398;-1.514;2023-12-28T10:06:48;9.80;99.90
21104;DHT22;10710;53.398;-1.514;2023-12-28T10:09:34;10.00;99.90
21104;DHT22;10710;53.398;-1.514;2023-12-28T10:12:19;10.10;99.90
21104;DHT22;10710;53.398;-1.514;2023-12-28T10:15:05;10.10;99.90
21104;DHT22;10710;53.398;-1.514;2023-12-28T10:20:51;10.80;99.90
21104;DHT22;10710;53.398;-1.514;2023-12-28T10:23:42;10.60;99.90
21104;DHT22;10710;53.398;-1.514;2023-12-28T10:26:29;11.20;99.90
21104;DHT22;10710;53.398;-1.514;2023-12-28T10:29:13;10.40;99.90
21104;DHT22;10710;53.398;-1.514;2023-12-28T10:31:58;10.40;99.90
21104;DHT22;10710;53.398;-1.514;2023-12-28T10:34:44;10.30;99.90
21104;DHT22;10710;53.398;-1.514;2023-12-28T10:37:32;10.40;99.90
21104;DHT22;10710;53.398;-1.514;2023-12-28T10:40:17;10.30;99.90
21104;DHT22;10710;53.398;-1.514;2023-12-28T10:43:06;10.40;99.90
21104;DHT22;10710;53.398;-1.514;2023-12-28T10:45:51;10.20;99.90
21104;DHT22;10710;53.398;-1.514;2023-12-28T10:48:40;10.30;99.90
21104;DHT22;10710;53.398;-1.514;2023-12-28T10:51:27;10.40;99.90
21104;DHT22;10710;53.398;-1.514;2023-12-28T10:57:23;10.20;99.90
21104;DHT22;10710;53.398;-1.514;2023-12-28T11:00:20;10.30;99.90
21104;DHT22;10710;53.398;-1.514;2023-12-28T11:03:10;10.10;99.90
21104;DHT22;10710;53.398;-1.514;2023-12-28T11:05:56;10.30;99.90
21104;DHT22;10710;53.398;-1.514;2023-12-28T11:08:42;10.40;99.90
21104;DHT22;10710;53.398;-1.514;2023-12-28T11:11:30;10.40;99.90
21104;DHT22;10710;53.398;-1.514;2023-12-28T11:14:17;10.50;99.90
21104;DHT22;10710;53.398;-1.514;2023-12-28T11:17:01;10.60;99.90
21104;DHT22;10710;53.398;-1.514;2023-12-28T11:19:46;10.40;99.90
21104;DHT22;10710;53.398;-1.514;2023-12-28T11:22:32;10.50;99.90
21104;DHT22;10710;53.398;-1.514;2023-12-28T11:25:18;10.40;99.90
21104;DHT22;10710;53.398;-1.514;2023-12-28T11:28:10;10.40;99.90
21104;DHT22;10710;53.398;-1.514;2023-12-28T11:30:56;10.20;99.90
21104;DHT22;10710;53.398;-1.514;2023-12-28T11:33:50;10.50;99.90
21104;DHT22;10710;53.398;-1.514;2023-12-28T11:36:40;10.30;99.90
21104;DHT22;10710;53.398;-1.514;2023-12-28T11:39:37;10.20;99.90
21104;DHT22;10710;53.398;-1.514;2023-12-28T11:42:23;9.90;99.90
21104;DHT22;10710;53.398;-1.514;2023-12-28T11:45:08;10.00;99.90
21104;DHT22;10710;53.398;-1.514;2023-12-28T11:48:01;9.90;99.90
21104;DHT22;10710;53.398;-1.514;2023-12-28T11:50:46;9.70;99.90
21104;DHT22;10710;53.398;-1.514;2023-12-28T11:53:35;9.80;99.90
21104;DHT22;10710;53.398;-1.514;2023-12-28T11:56:20;9.80;99.90
21104;DHT22;10710;53.398;-1.514;2023-12-28T11:59:05;9.60;99.90
21104;DHT22;10710;53.398;-1.514;2023-12-28T12:01:52;9.60;99.90
21104;DHT22;10710;53.398;-1.514;2023-12-28T12:12:25;10.00;99.90
21104;DHT22;10710;53.398;-1.514;2023-12-28T12:15:41;9.60;99.90
21104;DHT22;10710;53.398;-1.514;2023-12-28T12:18:29;10.30;99.90
21104;DHT22;10710;53.398;-1.514;2023-12-28T12:24:23;10.00;99.90
21104;DHT22;10710;53.398;-1.514;2023-12-28T12:27:31;9.90;99.90
21104;DHT22;10710;53.398;-1.514;2023-12-28T12:30:28;10.10;99.90
21104;DHT22;10710;53.398;-1.514;2023-12-28T12:33:28;9.80;99.90
21104;DHT22;10710;53.398;-1.514;2023-12-28T12:36:16;9.90;99.90
21104;DHT22;10710;53.398;-1.514;2023-12-28T12:39:02;10.00;99.90
21104;DHT22;10710;53.398;-1.514;2023-12-28T12:41:50;9.90;99.90
21104;DHT22;10710;53.398;-1.514;2023-12-28T12:44:38;10.00;99.90
21104;DHT22;10710;53.398;-1.514;2023-12-28T12:47:22;10.70;99.90
21104;DHT22;10710;53.398;-1.514;2023-12-28T12:50:08;10.10;99.90
21104;DHT22;10710;53.398;-1.514;2023-12-28T12:52:54;10.00;99.90
21104;DHT22;10710;53.398;-1.514;2023-12-28T12:55:39;10.00;99.90
21104;DHT22;10710;53.398;-1.514;2023-12-28T12:58:24;10.10;99.90
21104;DHT22;10710;53.398;-1.514;2023-12-28T13:01:12;10.10;99.90
21104;DHT22;10710;53.398;-1.514;2023-12-28T13:03:56;10.10;99.90
21104;DHT22;10710;53.398;-1.514;2023-12-28T13:06:41;10.20;99.90
21104;DHT22;10710;53.398;-1.514;2023-12-28T13:09:25;10.40;99.90
21104;DHT22;10710;53.398;-1.514;2023-12-28T13:12:10;10.40;99.90
21104;DHT22;10710;53.398;-1.514;2023-12-28T13:14:55;10.40;99.90
21104;DHT22;10710;53.398;-1.514;2023-12-28T13:17:39;10.30;99.90
21104;DHT22;10710;53.398;-1.514;2023-12-28T13:20:24;10.40;99.90
21104;DHT22;10710;53.398;-1.514;2023-12-28T13:23:08;10.40;99.90
21104;DHT22;10710;53.398;-1.514;2023-12-28T13:25:53;10.30;99.90
21104;DHT22;10710;53.398;-1.514;2023-12-28T13:28:37;10.40;99.90
21104;DHT22;10710;53.398;-1.514;2023-12-28T13:31:22;10.70;99.90
21104;DHT22;10710;53.398;-1.514;2023-12-28T13:34:07;10.40;99.90
21104;DHT22;10710;53.398;-1.514;2023-12-28T13:36:51;10.30;99.90
21104;DHT22;10710;53.398;-1.514;2023-12-28T13:39:37;10.10;99.90
21104;DHT22;10710;53.398;-1.514;2023-12-28T13:42:22;10.10;99.90
21104;DHT22;10710;53.398;-1.514;2023-12-28T13:45:07;10.10;99.90
21104;DHT22;10710;53.398;-1.514;2023-12-28T13:47:52;10.00;99.90
21104;DHT22;10710;53.398;-1.514;2023-12-28T13:50:36;10.00;99.90
21104;DHT22;10710;53.398;-1.514;2023-12-28T13:53:21;10.00;99.90
21104;DHT22;10710;53.398;-1.514;2023-12-28T13:56:06;10.00;99.90
21104;DHT22;10710;53.398;-1.514;2023-12-28T13:58:52;10.00;99.90
21104;DHT22;10710;53.398;-1.514;2023-12-28T14:01:37;10.10;99.90
21104;DHT22;10710;53.398;-1.514;2023-12-28T14:04:22;10.00;99.90
21104;DHT22;10710;53.398;-1.514;2023-12-28T14:07:06;10.00;99.90
21104;DHT22;10710;53.398;-1.514;2023-12-28T14:09:51;10.00;99.90
21104;DHT22;10710;53.398;-1.514;2023-12-28T14:12:36;9.90;99.90
21104;DHT22;10710;53.398;-1.514;2023-12-28T14:15:20;10.00;99.90
21104;DHT22;10710;53.398;-1.514;2023-12-28T14:18:05;9.90;99.90
21104;DHT22;10710;53.398;-1.514;2023-12-28T14:20:50;10.00;99.90
21104;DHT22;10710;53.398;-1.514;2023-12-28T14:23:35;10.00;99.90
21104;DHT22;10710;53.398;-1.514;2023-12-28T14:26:21;10.10;99.90
21104;DHT22;10710;53.398;-1.514;2023-12-28T14:29:05;10.20;99.90
21104;DHT22;10710;53.398;-1.514;2023-12-28T14:31:51;10.20;99.90
21104;DHT22;10710;53.398;-1.514;2023-12-28T14:34:36;10.20;99.90
21104;DHT22;10710;53.398;-1.514;2023-12-28T14:37:20;10.30;99.90
21104;DHT22;10710;53.398;-1.514;2023-12-28T14:40:05;10.40;99.90
21104;DHT22;10710;53.398;-1.514;2023-12-28T14:42:50;10.40;99.90
21104;DHT22;10710;53.398;-1.514;2023-12-28T14:45:34;10.40;99.90
21104;DHT22;10710;53.398;-1.514;2023-12-28T14:48:18;10.50;99.90
21104;DHT22;10710;53.398;-1.514;2023-12-28T14:51:03;10.50;99.90
21104;DHT22;10710;53.398;-1.514;2023-12-28T14:53:48;10.60;99.90
21104;DHT22;10710;53.398;-1.514;2023-12-28T14:56:32;10.50;99.90
21104;DHT22;10710;53.398;-1.514;2023-12-28T14:59:17;10.60;99.90
21104;DHT22;10710;53.398;-1.514;2023-12-28T15:02:01;10.70;99.90
21104;DHT22;10710;53.398;-1.514;2023-12-28T15:04:46;10.70;99.90
21104;DHT22;10710;53.398;-1.514;2023-12-28T15:07:30;10.70;99.90
21104;DHT22;10710;53.398;-1.514;2023-12-28T15:10:15;10.70;99.90
21104;DHT22;10710;53.398;-1.514;2023-12-28T15:13:00;10.70;99.90
21104;DHT22;10710;53.398;-1.514;2023-12-28T15:15:45;10.50;99.90
21104;DHT22;10710;53.398;-1.514;2023-12-28T15:18:31;10.50;99.90
21104;DHT22;10710;53.398;-1.514;2023-12-28T15:21:15;10.50;99.90
21104;DHT22;10710;53.398;-1.514;2023-12-28T15:24:00;10.60;99.90
21104;DHT22;10710;53.398;-1.514;2023-12-28T15:26:45;10.60;99.90
21104;DHT22;10710;53.398;-1.514;2023-12-28T15:29:30;10.40;99.90
21104;DHT22;10710;53.398;-1.514;2023-12-28T15:32:14;10.50;99.90
21104;DHT22;10710;53.398;-1.514;2023-12-28T15:34:58;10.30;99.90
21104;DHT22;10710;53.398;-1.514;2023-12-28T15:37:43;10.20;99.90
21104;DHT22;10710;53.398;-1.514;2023-12-28T15:40:27;10.10;99.90
21104;DHT22;10710;53.398;-1.514;2023-12-28T15:43:12;10.10;99.90
21104;DHT22;10710;53.398;-1.514;2023-12-28T15:45:57;10.10;99.90
21104;DHT22;10710;53.398;-1.514;2023-12-28T15:48:42;10.20;99.90
21104;DHT22;10710;53.398;-1.514;2023-12-28T15:51:26;10.20;99.90
21104;DHT22;10710;53.398;-1.514;2023-12-28T15:54:11;10.10;99.90
21104;DHT22;10710;53.398;-1.514;2023-12-28T15:56:56;10.20;99.90
21104;DHT22;10710;53.398;-1.514;2023-12-28T15:59:41;10.10;99.90
21104;DHT22;10710;53.398;-1.514;2023-12-28T16:02:26;10.10;99.90
21104;DHT22;10710;53.398;-1.514;2023-12-28T16:05:11;9.90;99.90
21104;DHT22;10710;53.398;-1.514;2023-12-28T16:07:55;10.10;99.90
21104;DHT22;10710;53.398;-1.514;2023-12-28T16:10:41;10.00;99.90
21104;DHT22;10710;53.398;-1.514;2023-12-28T16:13:25;9.90;99.90
21104;DHT22;10710;53.398;-1.514;2023-12-28T16:16:10;9.70;99.90
21104;DHT22;10710;53.398;-1.514;2023-12-28T16:18:56;9.90;99.90
21104;DHT22;10710;53.398;-1.514;2023-12-28T16:21:41;9.80;99.90
21104;DHT22;10710;53.398;-1.514;2023-12-28T16:24:26;9.90;99.90
21104;DHT22;10710;53.398;-1.514;2023-12-28T16:27:10;9.90;99.90
21104;DHT22;10710;53.398;-1.514;2023-12-28T16:29:55;9.90;99.90
21104;DHT22;10710;53.398;-1.514;2023-12-28T16:32:39;9.80;99.90
21104;DHT22;10710;53.398;-1.514;2023-12-28T16:35:24;9.90;99.90
21104;DHT22;10710;53.398;-1.514;2023-12-28T16:38:09;9.90;99.90
21104;DHT22;10710;53.398;-1.514;2023-12-28T16:40:54;9.80;99.90
21104;DHT22;10710;53.398;-1.514;2023-12-28T16:43:39;9.70;99.90
21104;DHT22;10710;53.398;-1.514;2023-12-28T16:46:25;9.70;99.90
21104;DHT22;10710;53.398;-1.514;2023-12-28T16:49:10;9.70;99.90
21104;DHT22;10710;53.398;-1.514;2023-12-28T16:51:56;9.80;99.90
21104;DHT22;10710;53.398;-1.514;2023-12-28T16:54:41;9.80;99.90
21104;DHT22;10710;53.398;-1.514;2023-12-28T16:57:26;9.70;99.90
21104;DHT22;10710;53.398;-1.514;2023-12-28T17:00:11;9.70;99.90
21104;DHT22;10710;53.398;-1.514;2023-12-28T17:02:55;9.70;99.90
21104;DHT22;10710;53.398;-1.514;2023-12-28T17:05:40;9.70;99.90
21104;DHT22;10710;53.398;-1.514;2023-12-28T17:08:25;9.70;99.90
21104;DHT22;10710;53.398;-1.514;2023-12-28T17:11:11;9.70;99.90
21104;DHT22;10710;53.398;-1.514;2023-12-28T17:14:00;9.70;99.90
21104;DHT22;10710;53.398;-1.514;2023-12-28T17:16:45;9.70;99.90
21104;DHT22;10710;53.398;-1.514;2023-12-28T17:19:30;9.70;99.90
21104;DHT22;10710;53.398;-1.514;2023-12-28T17:22:16;9.70;99.90
21104;DHT22;10710;53.398;-1.514;2023-12-28T17:25:34;9.70;99.90
21104;DHT22;10710;53.398;-1.514;2023-12-28T17:28:16;9.90;99.90
21104;DHT22;10710;53.398;-1.514;2023-12-28T17:31:05;10.00;99.90
21104;DHT22;10710;53.398;-1.514;2023-12-28T17:33:54;10.00;99.90
21104;DHT22;10710;53.398;-1.514;2023-12-28T17:36:39;10.00;99.90
21104;DHT22;10710;53.398;-1.514;2023-12-28T17:39:23;10.10;99.90
21104;DHT22;10710;53.398;-1.514;2023-12-28T17:42:10;10.10;99.90
21104;DHT22;10710;53.398;-1.514;2023-12-28T17:44:58;10.20;99.90
21104;DHT22;10710;53.398;-1.514;2023-12-28T17:50:42;10.20;99.90
21104;DHT22;10710;53.398;-1.514;2023-12-28T17:53:27;10.20;99.90
21104;DHT22;10710;53.398;-1.514;2023-12-28T17:56:11;10.20;99.90
21104;DHT22;10710;53.398;-1.514;2023-12-28T17:58:59;10.20;99.90
21104;DHT22;10710;53.398;-1.514;2023-12-28T18:01:44;10.10;99.90
21104;DHT22;10710;53.398;-1.514;2023-12-28T18:04:29;10.20;99.90
21104;DHT22;10710;53.398;-1.514;2023-12-28T18:07:13;10.20;99.90
21104;DHT22;10710;53.398;-1.514;2023-12-28T18:09:58;10.10;99.90
21104;DHT22;10710;53.398;-1.514;2023-12-28T18:12:42;10.10;99.90